Time;durP1;ratioP1;P1;durP2;ratioP2;P2;SDS_P1;SDS_P2;PMS_P1;PMS_P2;Temp;Humidity;BMP_temperature;BMP_pressure;BME280_temperature;BME280_humidity;BME280_pressure;Samples;Min_cycle;Max_cycle;Signal;HPM_P1;HPM_P2
2023/10/20 00:02:04;;;;;;;10.90;7.18;;;14.80;99.90;;;;;;5051150;28;20245;-61
2023/10/20 00:04:33;;;;;;;8.00;7.07;;;14.70;99.90;;;;;;5050752;28;20222;-61
2023/10/20 00:07:02;;;;;;;9.82;7.20;;;14.70;99.90;;;;;;5043387;28;20571;-61
2023/10/20 00:09:30;;;;;;;8.60;7.45;;;14.70;99.90;;;;;;5051106;28;20248;-60
2023/10/20 00:11:58;;;;;;;11.38;7.40;;;14.80;99.90;;;;;;5050609;28;20590;-61
2023/10/20 00:14:26;;;;;;;10.15;7.50;;;14.80;99.90;;;;;;5048851;28;20802;-61
2023/10/20 00:16:55;;;;;;;9.38;7.43;;;14.80;99.90;;;;;;5050507;28;20216;-60
2023/10/20 00:19:23;;;;;;;10.55;7.53;;;14.70;99.90;;;;;;5051023;28;20267;-60
2023/10/20 00:21:52;;;;;;;8.65;7.50;;;14.70;99.90;;;;;;5051145;28;20587;-61
2023/10/20 00:24:21;;;;;;;10.73;8.07;;;14.70;99.90;;;;;;5050771;28;20250;-59
2023/10/20 00:26:49;;;;;;;8.40;7.32;;;14.70;99.90;;;;;;5050960;28;20222;-61
2023/10/20 00:29:17;;;;;;;7.47;6.80;;;14.70;99.90;;;;;;5050574;28;20241;-60
2023/10/20 00:31:45;;;;;;;8.15;6.88;;;14.70;99.90;;;;;;5047752;28;20727;-61
2023/10/20 00:34:14;;;;;;;8.35;7.50;;;14.70;99.90;;;;;;5050366;28;20228;-60
2023/10/20 00:36:42;;;;;;;8.20;6.70;;;14.70;99.90;;;;;;5049919;28;20229;-60
2023/10/20 00:39:10;;;;;;;7.45;6.65;;;14.70;99.90;;;;;;5050648;28;20288;-60
2023/10/20 00:41:38;;;;;;;8.07;6.53;;;14.70;99.90;;;;;;5050275;28;20284;-61
2023/10/20 00:44:06;;;;;;;9.18;7.60;;;14.70;99.90;;;;;;5048708;28;20229;-60
2023/10/20 00:46:34;;;;;;;7.82;6.38;;;14.70;99.90;;;;;;5049151;28;20230;-61
2023/10/20 00:49:02;;;;;;;7.68;5.88;;;14.70;99.90;;;;;;5050665;28;20198;-62
2023/10/20 00:51:32;;;;;;;9.73;6.60;;;14.70;99.90;;;;;;5049119;28;20210;-61
2023/10/20 00:54:00;;;;;;;7.15;6.45;;;14.70;99.90;;;;;;5050338;28;20313;-62
2023/10/20 00:56:28;;;;;;;10.13;5.78;;;14.70;99.90;;;;;;5050695;28;20297;-61
2023/10/20 00:58:56;;;;;;;7.70;6.25;;;14.70;99.90;;;;;;5050702;28;20276;-61
2023/10/20 01:01:23;;;;;;;6.82;6.30;;;14.70;99.90;;;;;;5050673;28;20664;-61
2023/10/20 01:03:51;;;;;;;6.65;5.97;;;14.70;99.90;;;;;;5050249;28;20233;-61
2023/10/20 01:06:19;;;;;;;6.93;6.10;;;14.70;99.90;;;;;;5050758;28;20222;-62
2023/10/20 01:08:55;;;;;;;9.93;6.30;;;14.70;99.90;;;;;;5047689;28;20242;-61
2023/10/20 01:11:23;;;;;;;6.65;5.82;;;14.60;99.90;;;;;;5050784;28;20208;-61
2023/10/20 01:13:51;;;;;;;6.03;5.63;;;14.60;99.90;;;;;;5050204;28;20230;-61
2023/10/20 01:16:19;;;;;;;6.35;5.75;;;14.70;99.90;;;;;;5050471;28;20202;-61
2023/10/20 01:18:47;;;;;;;5.88;5.38;;;14.60;99.90;;;;;;5050576;28;20729;-62
2023/10/20 01:21:15;;;;;;;5.85;5.20;;;14.60;99.90;;;;;;5050544;28;20210;-61
2023/10/20 01:23:43;;;;;;;8.40;6.10;;;14.60;99.90;;;;;;5053849;28;20667;-61
2023/10/20 01:26:12;;;;;;;7.07;6.38;;;14.60;99.90;;;;;;5054385;28;20663;-62
2023/10/20 01:28:40;;;;;;;7.07;5.43;;;14.60;99.90;;;;;;5054075;28;20201;-61
2023/10/20 01:31:07;;;;;;;6.40;5.90;;;14.60;99.90;;;;;;5053635;28;20625;-62
2023/10/20 01:33:35;;;;;;;7.30;5.97;;;14.60;99.90;;;;;;5053588;28;20698;-62
2023/10/20 01:36:04;;;;;;;8.07;5.93;;;14.60;99.90;;;;;;5053572;28;20206;-62
2023/10/20 01:38:31;;;;;;;6.93;6.22;;;14.60;99.90;;;;;;5053622;28;20293;-62
2023/10/20 01:41:01;;;;;;;7.57;5.82;;;14.60;99.90;;;;;;5053601;28;20204;-62
2023/10/20 01:43:30;;;;;;;7.90;6.20;;;14.60;99.90;;;;;;5053190;28;20232;-61
2023/10/20 01:45:58;;;;;;;10.77;6.50;;;14.60;99.90;;;;;;5053317;28;20291;-61
2023/10/20 01:48:26;;;;;;;7.40;5.80;;;14.60;99.90;;;;;;5053641;28;20237;-62
2023/10/20 01:50:55;;;;;;;8.90;5.72;;;14.60;99.90;;;;;;5053404;28;20206;-62
2023/10/20 01:53:23;;;;;;;6.47;5.75;;;14.60;99.90;;;;;;5053602;28;20260;-61
2023/10/20 01:55:51;;;;;;;7.47;6.50;;;14.60;99.90;;;;;;5053550;28;20208;-61
2023/10/20 01:58:19;;;;;;;8.18;6.00;;;14.60;99.90;;;;;;5053784;28;20579;-61
2023/10/20 02:00:50;;;;;;;12.10;6.80;;;14.60;99.90;;;;;;5053388;28;20629;-61
2023/10/20 02:03:19;;;;;;;6.65;6.05;;;14.60;99.90;;;;;;5053368;28;20253;-61
2023/10/20 02:05:47;;;;;;;5.60;5.10;;;14.60;99.90;;;;;;5053456;28;20237;-62
2023/10/20 02:08:16;;;;;;;8.40;6.00;;;14.50;99.90;;;;;;5053534;28;20225;-62
2023/10/20 02:10:44;;;;;;;7.45;5.53;;;14.60;99.90;;;;;;5053275;28;20202;-61
2023/10/20 02:13:12;;;;;;;7.43;5.55;;;14.50;99.90;;;;;;5053143;28;20258;-62
2023/10/20 02:15:45;;;;;;;6.95;6.35;;;14.60;99.90;;;;;;5053011;28;20237;-62
2023/10/20 02:18:14;;;;;;;7.40;5.35;;;14.50;99.90;;;;;;5053443;28;20197;-63
2023/10/20 02:20:43;;;;;;;6.45;5.35;;;14.60;99.90;;;;;;5053051;28;20236;-62
2023/10/20 02:23:11;;;;;;;7.78;5.20;;;14.50;99.90;;;;;;5053107;28;20255;-62
2023/10/20 02:25:39;;;;;;;9.18;5.63;;;14.60;99.90;;;;;;5053175;28;20360;-61
2023/10/20 02:28:07;;;;;;;8.50;5.20;;;14.60;99.90;;;;;;5053383;28;20226;-62
2023/10/20 02:30:35;;;;;;;5.65;5.25;;;14.60;99.90;;;;;;5052727;28;20244;-62
2023/10/20 02:33:03;;;;;;;6.70;5.35;;;14.60;99.90;;;;;;5052500;28;20225;-61
2023/10/20 02:35:32;;;;;;;5.85;5.35;;;14.60;99.90;;;;;;5052340;28;20284;-62
2023/10/20 02:38:00;;;;;;;10.10;5.43;;;14.50;99.90;;;;;;5053313;28;20206;-62
2023/10/20 02:40:28;;;;;;;6.30;5.70;;;14.50;99.90;;;;;;5052769;28;20344;-61
2023/10/20 02:42:56;;;;;;;6.28;5.55;;;14.50;99.90;;;;;;5052380;28;20226;-62
2023/10/20 02:45:24;;;;;;;7.07;5.18;;;14.50;99.90;;;;;;5052190;28;20292;-61
2023/10/20 02:47:52;;;;;;;4.80;4.50;;;14.50;99.90;;;;;;5051919;28;20929;-62
2023/10/20 02:50:20;;;;;;;6.63;5.97;;;14.60;99.90;;;;;;5052091;28;20209;-61
2023/10/20 02:52:49;;;;;;;7.70;4.93;;;14.50;99.90;;;;;;5052549;28;20232;-60
2023/10/20 02:55:17;;;;;;;7.20;5.05;;;14.50;99.90;;;;;;5052530;28;20237;-62
2023/10/20 02:57:45;;;;;;;7.25;5.43;;;14.50;99.90;;;;;;5052588;28;20202;-62
2023/10/20 03:00:18;;;;;;;5.57;5.10;;;14.50;99.90;;;;;;5052390;28;20198;-61
2023/10/20 03:02:48;;;;;;;10.20;5.70;;;14.50;99.90;;;;;;5052419;28;20206;-62
2023/10/20 03:05:16;;;;;;;6.68;5.90;;;14.50;99.90;;;;;;5052326;28;20597;-61
2023/10/20 03:07:45;;;;;;;10.52;6.30;;;14.50;99.90;;;;;;5051491;28;20321;-61
2023/10/20 03:10:14;;;;;;;9.75;6.28;;;14.50;99.90;;;;;;5051687;28;20659;-61
2023/10/20 03:12:42;;;;;;;6.15;5.53;;;14.50;99.90;;;;;;5052216;28;20289;-61
2023/10/20 03:15:11;;;;;;;7.05;5.85;;;14.50;99.90;;;;;;5051385;28;20279;-61
2023/10/20 03:17:39;;;;;;;6.18;5.57;;;14.50;99.90;;;;;;5052560;28;20198;-61
2023/10/20 03:20:09;;;;;;;9.63;6.65;;;14.50;99.90;;;;;;5051966;28;20272;-62
2023/10/20 03:22:37;;;;;;;5.97;5.47;;;14.50;99.90;;;;;;5052116;28;20246;-61
2023/10/20 03:25:07;;;;;;;9.05;6.65;;;14.50;99.90;;;;;;5051856;28;20671;-61
2023/10/20 03:27:37;;;;;;;7.10;6.50;;;14.50;99.90;;;;;;5051754;28;20229;-61
2023/10/20 03:30:07;;;;;;;7.60;6.50;;;14.50;99.90;;;;;;5051884;28;20202;-61
2023/10/20 03:32:35;;;;;;;12.05;6.95;;;14.50;99.90;;;;;;5051901;28;20209;-61
2023/10/20 03:35:02;;;;;;;6.50;5.90;;;14.50;99.90;;;;;;5051660;28;20593;-61
2023/10/20 03:37:31;;;;;;;9.00;7.50;;;14.50;99.90;;;;;;5051941;28;20209;-61
2023/10/20 03:39:59;;;;;;;11.20;7.25;;;14.50;99.90;;;;;;5051529;28;20223;-61
2023/10/20 03:42:27;;;;;;;8.02;7.22;;;14.50;99.90;;;;;;5051914;28;20729;-62
2023/10/20 03:44:56;;;;;;;8.00;7.28;;;14.50;99.90;;;;;;5051530;28;20264;-61
2023/10/20 03:47:27;;;;;;;8.07;7.18;;;14.40;99.90;;;;;;5051600;28;20392;-62
2023/10/20 03:49:57;;;;;;;13.02;8.13;;;14.40;99.90;;;;;;5051475;28;20217;-61
2023/10/20 03:52:28;;;;;;;13.48;8.20;;;14.40;99.90;;;;;;5051704;28;20223;-61
2023/10/20 03:54:56;;;;;;;11.23;7.38;;;14.40;99.90;;;;;;5051165;28;20256;-61
2023/10/20 03:57:24;;;;;;;9.20;7.65;;;14.40;99.90;;;;;;5051787;28;20228;-61
2023/10/20 03:59:52;;;;;;;8.63;7.78;;;14.40;99.90;;;;;;5051337;28;20248;-61
2023/10/20 04:02:21;;;;;;;11.23;8.05;;;14.40;99.90;;;;;;5051589;28;20659;-60
2023/10/20 04:04:49;;;;;;;11.88;9.10;;;14.40;99.90;;;;;;5050985;28;20257;-61
2023/10/20 04:07:17;;;;;;;10.63;7.85;;;14.40;99.90;;;;;;5051317;28;20260;-61
2023/10/20 04:09:46;;;;;;;12.55;9.57;;;14.40;99.90;;;;;;5051357;28;20291;-62
2023/10/20 04:12:15;;;;;;;9.93;8.45;;;14.40;99.90;;;;;;5043209;28;20206;-62
2023/10/20 04:14:46;;;;;;;9.65;8.65;;;14.40;99.90;;;;;;5047906;28;20340;-61
2023/10/20 04:17:15;;;;;;;12.60;8.02;;;14.40;99.90;;;;;;5051343;28;20202;-61
2023/10/20 04:19:45;;;;;;;10.05;8.45;;;14.40;99.90;;;;;;5050924;28;20203;-62
2023/10/20 04:22:13;;;;;;;13.30;8.68;;;14.40;99.90;;;;;;5043436;28;20229;-61
2023/10/20 04:24:42;;;;;;;13.43;9.45;;;14.30;99.90;;;;;;5047471;28;20307;-60
2023/10/20 04:27:21;;;;;;;10.45;8.75;;;14.30;99.90;;;;;;5047933;28;20206;-61
2023/10/20 04:41:51;;;;;;;9.35;8.43;;;14.30;99.90;;;;;;5044306;28;20233;-61
2023/10/20 04:49:55;;;;;;;15.45;9.00;;;14.30;99.90;;;;;;5051164;28;20279;-62
2023/10/20 04:58:01;;;;;;;9.95;8.93;;;14.20;99.90;;;;;;5045226;28;20213;-63
2023/10/20 05:00:34;;;;;;;10.23;9.18;;;14.20;99.90;;;;;;5055008;28;20251;-62
2023/10/20 05:03:15;;;;;;;11.52;8.40;;;14.20;99.90;;;;;;5054842;28;20317;-62
2023/10/20 05:05:53;;;;;;;9.98;8.55;;;14.20;99.90;;;;;;5054919;28;20211;-62
2023/10/20 05:08:23;;;;;;;10.55;7.45;;;14.20;99.90;;;;;;5055219;28;20226;-63
2023/10/20 05:10:53;;;;;;;11.52;8.25;;;14.20;99.90;;;;;;5054662;28;20202;-62
2023/10/20 05:13:22;;;;;;;10.07;7.93;;;14.20;99.90;;;;;;5054433;28;20691;-62
2023/10/20 05:15:50;;;;;;;11.27;9.57;;;14.20;99.90;;;;;;5054431;28;20263;-62
2023/10/20 05:18:18;;;;;;;9.73;8.65;;;14.20;99.90;;;;;;5054886;28;20664;-62
2023/10/20 05:20:46;;;;;;;10.00;8.50;;;14.20;99.90;;;;;;5054598;28;20217;-63
2023/10/20 05:23:15;;;;;;;9.05;8.25;;;14.20;99.90;;;;;;5054376;28;20221;-62
2023/10/20 05:25:48;;;;;;;10.65;9.25;;;14.20;99.90;;;;;;5054252;28;20202;-61
2023/10/20 05:28:17;;;;;;;11.23;9.73;;;14.20;99.90;;;;;;5054399;28;20218;-62
2023/10/20 05:30:45;;;;;;;11.35;9.20;;;14.20;99.90;;;;;;5054017;28;20217;-61
2023/10/20 05:33:15;;;;;;;14.68;9.98;;;14.10;99.90;;;;;;5054023;28;20253;-61
2023/10/20 05:35:43;;;;;;;11.77;9.55;;;14.10;99.90;;;;;;5054062;28;20741;-61
2023/10/20 05:38:11;;;;;;;12.18;9.25;;;14.10;99.90;;;;;;5054302;28;20296;-61
2023/10/20 05:40:39;;;;;;;11.50;9.13;;;14.10;99.90;;;;;;5053965;28;20213;-61
2023/10/20 05:43:09;;;;;;;14.23;10.05;;;14.10;99.90;;;;;;5053695;28;20683;-61
2023/10/20 05:45:40;;;;;;;15.60;10.50;;;14.10;99.90;;;;;;5054131;28;20419;-61
2023/10/20 05:48:08;;;;;;;15.13;10.10;;;14.10;99.90;;;;;;5053891;28;20667;-61
2023/10/20 05:50:37;;;;;;;12.13;9.90;;;14.10;99.90;;;;;;5053866;28;20205;-61
2023/10/20 05:53:06;;;;;;;12.35;10.85;;;14.10;99.90;;;;;;5053624;28;20312;-61
2023/10/20 05:55:34;;;;;;;18.65;11.13;;;14.10;99.90;;;;;;5053659;28;20289;-62
2023/10/20 05:58:02;;;;;;;16.13;11.60;;;14.10;99.90;;;;;;5054043;28;20298;-61
2023/10/20 06:00:31;;;;;;;14.38;10.77;;;14.10;99.90;;;;;;5053972;28;20252;-59
2023/10/20 06:03:10;;;;;;;16.48;11.50;;;14.10;99.90;;;;;;5054254;28;20222;-60
2023/10/20 06:05:38;;;;;;;13.15;10.80;;;14.00;99.90;;;;;;5054123;28;20299;-60
2023/10/20 06:08:07;;;;;;;13.52;11.98;;;14.00;99.90;;;;;;5053034;28;20768;-60
2023/10/20 06:10:34;;;;;;;14.50;11.70;;;14.00;99.90;;;;;;5053631;28;20225;-60
2023/10/20 06:13:04;;;;;;;16.92;12.82;;;14.00;99.90;;;;;;5053511;28;20710;-60
2023/10/20 06:15:33;;;;;;;17.38;12.32;;;14.00;99.90;;;;;;5053405;28;20297;-60
2023/10/20 06:18:01;;;;;;;15.57;11.35;;;14.00;99.90;;;;;;5052134;28;20214;-59
2023/10/20 06:20:29;;;;;;;16.33;12.52;;;14.00;99.90;;;;;;5052996;28;20285;-60
2023/10/20 06:22:57;;;;;;;19.05;12.80;;;14.00;99.90;;;;;;5052734;28;20257;-59
2023/10/20 06:25:25;;;;;;;14.38;12.75;;;14.00;99.90;;;;;;5053298;28;20245;-59
2023/10/20 06:27:53;;;;;;;17.75;13.75;;;14.00;99.90;;;;;;5053783;28;20299;-60
2023/10/20 06:30:21;;;;;;;16.50;13.82;;;14.00;99.90;;;;;;5052952;28;20666;-60
2023/10/20 06:33:12;;;;;;;17.27;13.13;;;14.00;99.90;;;;;;5053393;28;20737;-60
2023/10/20 06:35:50;;;;;;;20.80;16.17;;;14.00;99.90;;;;;;5053106;28;20205;-60
2023/10/20 06:38:23;;;;;;;37.22;25.17;;;14.00;99.90;;;;;;5053690;28;20209;-60
2023/10/20 06:40:51;;;;;;;30.02;23.55;;;14.00;99.90;;;;;;5053319;28;20237;-60
2023/10/20 06:43:20;;;;;;;30.17;25.08;;;14.00;99.90;;;;;;5052912;28;20312;-60
2023/10/20 06:45:55;;;;;;;24.75;18.45;;;14.00;99.90;;;;;;5052982;28;20305;-60
2023/10/20 06:48:26;;;;;;;23.20;18.10;;;14.00;99.90;;;;;;5052443;28;20206;-60
2023/10/20 06:50:54;;;;;;;20.85;15.32;;;14.00;99.90;;;;;;5052609;28;20229;-60
2023/10/20 06:53:22;;;;;;;19.70;15.15;;;14.00;99.90;;;;;;5053017;28;20271;-60
2023/10/20 06:55:50;;;;;;;22.95;15.52;;;14.00;99.90;;;;;;5052728;28;20206;-60
2023/10/20 06:58:38;;;;;;;17.95;14.93;;;14.00;99.90;;;;;;5047511;28;20209;-60
2023/10/20 07:01:06;;;;;;;20.23;16.30;;;14.00;99.90;;;;;;5052719;28;20252;-59
2023/10/20 07:03:35;;;;;;;17.65;15.32;;;14.00;99.90;;;;;;5052667;28;20591;-60
2023/10/20 07:06:07;;;;;;;17.55;15.60;;;14.00;99.90;;;;;;5052567;28;20667;-60
2023/10/20 07:08:35;;;;;;;22.77;16.33;;;14.00;99.90;;;;;;5051420;28;20698;-59
2023/10/20 07:11:03;;;;;;;23.00;16.52;;;14.00;99.90;;;;;;5052249;28;20225;-59
2023/10/20 07:13:31;;;;;;;20.00;17.10;;;13.90;99.90;;;;;;5052602;28;20217;-58
2023/10/20 07:16:00;;;;;;;21.90;16.23;;;13.90;99.90;;;;;;5052283;28;20692;-58
2023/10/20 07:18:28;;;;;;;19.10;16.98;;;13.90;99.90;;;;;;5052713;28;20296;-59
2023/10/20 07:20:57;;;;;;;26.30;18.10;;;13.90;99.90;;;;;;5051872;28;20206;-59
2023/10/20 07:23:26;;;;;;;25.30;20.98;;;13.90;99.90;;;;;;5044702;28;20288;-57
2023/10/20 07:25:54;;;;;;;73.43;35.45;;;13.90;99.90;;;;;;5051837;28;20210;-58
2023/10/20 07:28:22;;;;;;;99.30;42.55;;;13.90;99.90;;;;;;5052090;28;20202;-58
2023/10/20 07:30:50;;;;;;;43.15;26.27;;;13.90;99.90;;;;;;5052068;28;20265;-59
2023/10/20 07:33:18;;;;;;;31.35;21.55;;;14.00;99.90;;;;;;5052034;28;20240;-58
2023/10/20 07:35:46;;;;;;;24.10;17.42;;;14.00;99.90;;;;;;5052253;28;20206;-59
2023/10/20 07:38:17;;;;;;;23.92;15.70;;;14.00;99.90;;;;;;5052259;28;20210;-58
2023/10/20 07:40:45;;;;;;;17.52;15.35;;;14.00;99.90;;;;;;5052056;28;20199;-59
2023/10/20 07:43:13;;;;;;;18.95;17.00;;;14.00;99.90;;;;;;5051901;28;20261;-59
2023/10/20 07:45:41;;;;;;;32.45;22.27;;;14.00;99.90;;;;;;5051931;28;20205;-60
2023/10/20 07:48:10;;;;;;;24.48;19.10;;;13.90;99.90;;;;;;5051407;28;20309;-59
2023/10/20 07:50:38;;;;;;;33.47;25.05;;;13.90;99.90;;;;;;5051884;28;20222;-58
2023/10/20 07:53:09;;;;;;;22.55;17.10;;;13.90;99.90;;;;;;5051646;28;20240;-59
2023/10/20 07:55:38;;;;;;;20.17;15.73;;;13.90;99.90;;;;;;5051848;28;20206;-58
2023/10/20 07:58:08;;;;;;;20.33;16.35;;;13.90;99.90;;;;;;5051937;28;20676;-58
2023/10/20 08:00:37;;;;;;;17.63;15.30;;;14.00;99.90;;;;;;5051589;28;20639;-58
2023/10/20 08:03:05;;;;;;;21.02;16.50;;;14.00;99.90;;;;;;5051715;28;20242;-58
2023/10/20 08:05:35;;;;;;;21.65;16.63;;;14.00;99.90;;;;;;5051748;28;20206;-59
2023/10/20 08:08:04;;;;;;;23.00;17.58;;;14.00;99.90;;;;;;5051839;28;20275;-60
2023/10/20 08:10:33;;;;;;;22.20;17.58;;;14.00;99.90;;;;;;5051399;28;20279;-58
2023/10/20 08:13:02;;;;;;;23.67;17.92;;;14.00;99.90;;;;;;5051220;28;20226;-59
2023/10/20 08:15:30;;;;;;;24.80;17.13;;;14.00;99.90;;;;;;5051362;28;20267;-60
2023/10/20 08:17:58;;;;;;;19.73;16.60;;;14.00;99.90;;;;;;5051389;28;20209;-61
2023/10/20 08:20:27;;;;;;;26.48;17.35;;;14.00;99.90;;;;;;5051079;28;20198;-61
2023/10/20 08:22:55;;;;;;;22.05;16.67;;;14.00;99.90;;;;;;5047902;28;20586;-60
2023/10/20 08:25:22;;;;;;;20.40;16.08;;;14.00;99.90;;;;;;5050698;28;20233;-59
2023/10/20 08:27:50;;;;;;;23.90;15.63;;;14.00;99.90;;;;;;5046491;28;20647;-59
2023/10/20 08:30:21;;;;;;;20.70;16.02;;;14.00;99.90;;;;;;5051162;28;20221;-60
2023/10/20 08:32:49;;;;;;;21.88;15.85;;;14.00;99.90;;;;;;5050827;28;20233;-60
2023/10/20 08:35:17;;;;;;;19.75;14.25;;;13.90;99.90;;;;;;5051047;28;20693;-60
2023/10/20 08:37:45;;;;;;;18.83;15.43;;;14.00;99.90;;;;;;5051265;28;20210;-61
2023/10/20 08:40:13;;;;;;;19.42;14.82;;;14.00;99.90;;;;;;5050625;28;20206;-60
2023/10/20 08:42:42;;;;;;;19.70;14.73;;;14.00;99.90;;;;;;5051298;28;20644;-60
2023/10/20 08:45:14;;;;;;;21.15;14.20;;;14.00;99.90;;;;;;5045991;28;20211;-60
2023/10/20 08:47:43;;;;;;;18.33;14.55;;;14.10;99.90;;;;;;5043910;28;20257;-59
2023/10/20 08:50:13;;;;;;;16.98;14.35;;;14.10;99.90;;;;;;5050895;28;20229;-60
2023/10/20 08:52:44;;;;;;;24.85;15.07;;;14.10;99.90;;;;;;5050938;28;20220;-60
2023/10/20 08:55:13;;;;;;;18.65;14.85;;;14.10;99.90;;;;;;5050543;28;20747;-59
2023/10/20 08:57:41;;;;;;;21.70;15.73;;;14.10;99.90;;;;;;5051381;28;20221;-59
2023/10/20 09:00:19;;;;;;;17.08;15.15;;;14.10;99.90;;;;;;5050957;28;20259;-59
2023/10/20 09:02:48;;;;;;;18.05;16.15;;;14.20;99.90;;;;;;5051084;28;20216;-58
2023/10/20 09:05:21;;;;;;;18.27;14.68;;;14.20;99.90;;;;;;5050489;28;20210;-60
2023/10/20 09:07:53;;;;;;;17.00;14.15;;;14.30;99.90;;;;;;5051187;28;20206;-59
2023/10/20 09:10:21;;;;;;;19.58;14.52;;;14.30;99.90;;;;;;5050700;28;20311;-60
2023/10/20 09:12:49;;;;;;;17.20;13.55;;;14.30;99.90;;;;;;5051190;28;20298;-61
2023/10/20 09:15:17;;;;;;;15.00;13.15;;;14.40;99.90;;;;;;5050193;28;20249;-60
2023/10/20 09:17:54;;;;;;;18.30;14.98;;;14.40;99.90;;;;;;5050842;28;20260;-59
2023/10/20 09:20:23;;;;;;;15.30;12.85;;;14.40;99.90;;;;;;5050576;28;20206;-60
2023/10/20 09:22:51;;;;;;;13.90;12.48;;;14.50;99.90;;;;;;5050786;28;20719;-59
2023/10/20 09:25:19;;;;;;;17.00;13.88;;;14.60;99.90;;;;;;5050657;28;20210;-59
2023/10/20 09:27:47;;;;;;;16.35;13.50;;;14.70;99.90;;;;;;5051035;28;20198;-60
2023/10/20 09:30:16;;;;;;;18.90;13.13;;;14.80;99.90;;;;;;5050362;28;20698;-60
2023/10/20 09:32:44;;;;;;;15.52;13.90;;;14.80;99.90;;;;;;5050883;28;20676;-60
2023/10/20 09:35:13;;;;;;;21.20;13.15;;;14.90;99.90;;;;;;5050231;28;20683;-60
2023/10/20 09:37:41;;;;;;;15.70;12.90;;;14.90;99.90;;;;;;5050952;28;20247;-60
2023/10/20 09:40:10;;;;;;;16.77;13.30;;;14.90;99.90;;;;;;5050589;28;20206;-60
2023/10/20 09:42:46;;;;;;;16.25;13.23;;;15.00;99.90;;;;;;5050802;28;20233;-60
2023/10/20 09:45:16;;;;;;;14.85;12.48;;;15.00;99.90;;;;;;5054241;28;20241;-60
2023/10/20 09:47:45;;;;;;;13.88;12.48;;;14.90;99.90;;;;;;5054558;28;20206;-60
2023/10/20 09:50:18;;;;;;;22.40;12.85;;;15.00;99.90;;;;;;5053984;28;20206;-60
2023/10/20 09:52:46;;;;;;;15.13;12.75;;;15.00;99.90;;;;;;5054376;28;20198;-60
2023/10/20 09:55:14;;;;;;;17.27;12.23;;;15.00;99.90;;;;;;5052849;28;20206;-60
2023/10/20 09:57:42;;;;;;;16.10;12.52;;;15.10;99.90;;;;;;5054580;28;20202;-60
2023/10/20 10:00:12;;;;;;;14.15;11.20;;;15.10;99.90;;;;;;5053316;28;20241;-59
2023/10/20 10:02:40;;;;;;;16.27;13.70;;;15.10;99.90;;;;;;5054136;28;20205;-60
2023/10/20 10:05:09;;;;;;;21.05;14.32;;;15.20;99.90;;;;;;5053674;28;20202;-60
2023/10/20 10:07:39;;;;;;;18.08;13.15;;;15.30;99.90;;;;;;5053906;28;20208;-60
2023/10/20 10:10:07;;;;;;;17.67;12.77;;;15.30;99.90;;;;;;5053905;28;20293;-60
2023/10/20 10:12:36;;;;;;;14.45;12.20;;;15.40;99.90;;;;;;5053997;28;20218;-60
2023/10/20 10:15:07;;;;;;;17.20;13.07;;;15.50;99.90;;;;;;5053567;28;20297;-60
2023/10/20 10:17:45;;;;;;;13.30;11.93;;;15.60;99.90;;;;;;5053901;28;20201;-60
2023/10/20 10:20:19;;;;;;;13.48;11.27;;;15.60;99.90;;;;;;5053535;28;20209;-60
2023/10/20 10:22:48;;;;;;;14.40;11.18;;;15.60;99.90;;;;;;5053973;28;20201;-60
2023/10/20 10:25:17;;;;;;;12.13;10.90;;;15.70;99.90;;;;;;5053206;28;20746;-60
2023/10/20 10:27:44;;;;;;;14.02;11.40;;;15.70;99.90;;;;;;5053642;28;20210;-60
2023/10/20 10:30:13;;;;;;;13.93;11.23;;;15.80;99.90;;;;;;5053355;28;20289;-60
2023/10/20 10:32:47;;;;;;;13.30;11.90;;;15.80;99.90;;;;;;5053414;28;20308;-60
2023/10/20 10:35:16;;;;;;;15.02;11.63;;;15.80;99.90;;;;;;5053363;28;20202;-60
2023/10/20 10:37:45;;;;;;;16.60;12.13;;;15.70;99.90;;;;;;5053595;28;20210;-60
2023/10/20 10:40:15;;;;;;;18.33;11.80;;;15.80;99.90;;;;;;5053172;28;20256;-60
2023/10/20 10:42:45;;;;;;;14.13;12.27;;;15.80;99.90;;;;;;5053413;28;20604;-60
2023/10/20 10:45:17;;;;;;;16.15;12.60;;;15.80;99.90;;;;;;5053029;28;20206;-60
2023/10/20 10:47:45;;;;;;;12.85;11.43;;;15.80;99.90;;;;;;5053508;28;20268;-60
2023/10/20 10:50:15;;;;;;;13.25;11.88;;;15.90;99.90;;;;;;5053111;28;20263;-60
2023/10/20 10:52:43;;;;;;;16.00;11.50;;;16.00;99.90;;;;;;5053223;28;20218;-60
2023/10/20 10:55:11;;;;;;;12.30;10.93;;;16.20;99.90;;;;;;5052089;28;20308;-60
2023/10/20 10:57:40;;;;;;;14.18;12.18;;;16.20;99.90;;;;;;5052757;28;20198;-60
2023/10/20 11:00:13;;;;;;;16.48;12.18;;;16.20;99.90;;;;;;5052934;28;20210;-60
2023/10/20 11:02:40;;;;;;;9.80;8.88;;;16.30;99.90;;;;;;5052933;28;20209;-58
2023/10/20 11:05:09;;;;;;;6.65;5.80;;;16.30;99.90;;;;;;5052581;28;20209;-58
2023/10/20 11:07:37;;;;;;;6.22;5.70;;;16.40;99.90;;;;;;5052749;28;20248;-59
2023/10/20 11:10:06;;;;;;;8.05;7.35;;;16.60;99.90;;;;;;5052399;28;20214;-58
2023/10/20 11:12:34;;;;;;;9.55;7.80;;;16.80;99.90;;;;;;5052020;28;20305;-58
2023/10/20 11:15:04;;;;;;;8.43;7.50;;;17.00;99.90;;;;;;5052012;28;20741;-59
2023/10/20 11:17:32;;;;;;;10.70;9.68;;;17.10;99.90;;;;;;5052699;28;20204;-60
2023/10/20 11:20:00;;;;;;;12.82;10.27;;;17.20;99.90;;;;;;5052751;28;20210;-60
2023/10/20 11:22:28;;;;;;;11.90;10.70;;;17.20;99.90;;;;;;5052647;28;20198;-60
2023/10/20 11:24:56;;;;;;;12.65;10.57;;;17.10;99.90;;;;;;5052210;28;20610;-60
2023/10/20 11:27:24;;;;;;;11.82;10.63;;;17.00;99.90;;;;;;5052574;28;20240;-60
2023/10/20 11:29:52;;;;;;;12.77;10.93;;;16.90;99.90;;;;;;5052132;28;20710;-60
2023/10/20 11:32:27;;;;;;;12.68;10.68;;;16.90;99.90;;;;;;5052440;28;20229;-60
2023/10/20 11:34:55;;;;;;;12.55;10.63;;;16.90;99.90;;;;;;5042336;28;20254;-60
2023/10/20 11:37:23;;;;;;;10.82;9.75;;;16.90;99.90;;;;;;5043423;28;20297;-59
2023/10/20 11:39:51;;;;;;;10.20;9.20;;;16.90;99.90;;;;;;5052074;28;20241;-59
2023/10/20 11:42:19;;;;;;;9.73;8.75;;;17.00;99.90;;;;;;5052282;28;20251;-58
2023/10/20 11:44:46;;;;;;;9.95;8.80;;;17.00;99.90;;;;;;5049862;28;20304;-58
2023/10/20 11:47:15;;;;;;;10.68;9.50;;;17.00;99.90;;;;;;5052179;28;20237;-60
2023/10/20 11:49:44;;;;;;;9.75;8.75;;;17.00;99.90;;;;;;5081851;22;20237;-56
2023/10/20 11:52:12;;;;;;;9.45;8.55;;;16.90;99.90;;;;;;5072183;28;20316;-53
2023/10/20 11:54:41;;;;;;;10.00;8.88;;;16.90;99.90;;;;;;5071770;28;20200;-55
2023/10/20 11:57:09;;;;;;;10.95;9.90;;;16.80;99.90;;;;;;5071942;28;20240;-55
2023/10/20 11:59:37;;;;;;;11.93;9.85;;;16.70;99.90;;;;;;5071769;28;20221;-58
2023/10/20 12:02:05;;;;;;;10.95;9.82;;;16.70;99.90;;;;;;5071609;28;20250;-57
2023/10/20 12:04:33;;;;;;;13.18;10.15;;;16.60;99.90;;;;;;5071312;28;20630;-56
2023/10/20 12:07:02;;;;;;;11.10;10.00;;;16.60;99.90;;;;;;5070772;28;20620;-54
2023/10/20 12:09:31;;;;;;;11.93;9.45;;;16.60;99.90;;;;;;5071616;28;20221;-55
2023/10/20 12:11:59;;;;;;;10.50;8.57;;;16.60;99.90;;;;;;5071350;28;20609;-57
2023/10/20 12:14:27;;;;;;;12.02;9.55;;;16.50;99.90;;;;;;5071296;28;20719;-56
2023/10/20 12:16:55;;;;;;;12.38;8.07;;;16.50;99.90;;;;;;5071268;28;20209;-58
2023/10/20 12:19:23;;;;;;;12.93;8.80;;;16.50;99.90;;;;;;5071747;28;20744;-58
2023/10/20 12:21:51;;;;;;;11.48;8.95;;;16.50;99.90;;;;;;5072449;28;20677;-56
2023/10/20 12:24:21;;;;;;;11.95;8.35;;;16.50;99.90;;;;;;5071591;28;20258;-58
2023/10/20 12:26:48;;;;;;;9.48;8.25;;;16.50;99.90;;;;;;5071316;28;20262;-54
2023/10/20 12:29:19;;;;;;;7.35;6.65;;;16.50;99.90;;;;;;5071063;28;20225;-57
2023/10/20 12:31:47;;;;;;;7.95;6.85;;;16.50;99.90;;;;;;5070619;28;20212;-58
2023/10/20 12:34:15;;;;;;;7.68;6.35;;;16.60;99.90;;;;;;5071338;28;20209;-59
2023/10/20 12:36:43;;;;;;;7.70;6.00;;;16.50;99.90;;;;;;5071295;28;20205;-59
2023/10/20 12:39:17;;;;;;;7.30;6.07;;;16.50;99.90;;;;;;5071398;28;20311;-59
2023/10/20 12:41:46;;;;;;;8.10;5.68;;;16.50;99.90;;;;;;5070842;28;20334;-58
2023/10/20 12:44:14;;;;;;;7.00;5.50;;;16.40;99.90;;;;;;5071294;28;20205;-59
2023/10/20 12:46:44;;;;;;;8.32;6.78;;;16.30;99.90;;;;;;5071273;28;20297;-58
2023/10/20 12:49:12;;;;;;;10.60;6.70;;;16.30;99.90;;;;;;5070901;28;20302;-59
2023/10/20 12:51:42;;;;;;;8.18;6.25;;;16.30;99.90;;;;;;5071379;28;20201;-59
2023/10/20 12:54:09;;;;;;;6.65;5.78;;;16.30;99.90;;;;;;5070995;28;20287;-59
2023/10/20 12:56:37;;;;;;;6.43;5.82;;;16.40;99.90;;;;;;5071190;28;20205;-58
2023/10/20 12:59:07;;;;;;;7.88;6.40;;;16.40;99.90;;;;;;5071296;28;20225;-58
2023/10/20 13:01:35;;;;;;;6.80;5.93;;;16.50;99.90;;;;;;5071020;28;20236;-59
2023/10/20 13:04:04;;;;;;;6.55;5.82;;;16.60;99.90;;;;;;5070737;28;20200;-59
2023/10/20 13:06:32;;;;;;;7.28;6.05;;;16.70;99.90;;;;;;5070560;28;20205;-59
2023/10/20 13:09:17;;;;;;;6.30;5.57;;;16.80;99.90;;;;;;5069810;28;20224;-59